Airport Name : Ignacio Agramonte Intl

Other Name : Camaguey

ICAO : MUCM

IATA : CMW

FAA :

Latitude : 21.420278

Longitude : -77.8475

Country : Cuba

Local Date and Time : 8/22/2018 1:46:00 AM

 

TAF (Terminal Aerodrome Forecast)

MUCM 220500Z 2206/2306 04005KT 9000 FEW020 BECMG 2214/2216 06010KT SCT020 TEMPO 2218/2224 3000 TSRA SCT018CB BKN020 BECMG 2301/2303 04005KT FEW020

 

METAR (METeorological Aerodrome Report)

MUCM 220450Z 02005KT 9000 FEW030 BKN300 26/25 Q1019

MUCM 220350Z 06004KT 9000 FEW020 BKN300 26/25 Q1019

MUCM 220250Z 07006KT 9000 FEW025 BKN300 26/24 Q1018

MUCM 220151Z 05008KT 9000 SCT025 BKN100 27/24 Q1018